Time;durP1;ratioP1;P1;durP2;ratioP2;P2;SDS_P1;SDS_P2;PMS_P1;PMS_P2;Temp;Humidity;BMP_temperature;BMP_pressure;BME280_temperature;BME280_humidity;BME280_pressure;Samples;Min_cycle;Max_cycle;Signal;HPM_P1;HPM_P2
2023/05/04 00:01:38;;;;;;;6.43;3.93;;;10.20;90.90;;;;;;5054494;28;20457;-50
2023/05/04 00:04:06;;;;;;;7.33;3.83;;;9.70;91.30;;;;;;5054391;28;20470;-51
2023/05/04 00:06:32;;;;;;;9.40;3.63;;;10.00;91.20;;;;;;5054434;28;20474;-51
2023/05/04 00:08:59;;;;;;;7.70;3.50;;;9.90;91.80;;;;;;5054178;28;20533;-50
2023/05/04 00:11:25;;;;;;;10.57;4.83;;;9.50;91.90;;;;;;5054454;28;20429;-50
2023/05/04 00:13:52;;;;;;;10.53;4.10;;;9.70;92.10;;;;;;5053203;28;20501;-51
2023/05/04 00:16:19;;;;;;;23.27;5.00;;;9.80;92.30;;;;;;5054312;28;21009;-50
2023/05/04 00:18:46;;;;;;;10.90;4.27;;;9.50;92.50;;;;;;5053932;28;20488;-50
2023/05/04 00:21:13;;;;;;;8.70;3.67;;;9.60;92.40;;;;;;5054377;28;20412;-51
2023/05/04 00:23:40;;;;;;;8.70;3.60;;;9.30;92.50;;;;;;5054127;28;20420;-51
2023/05/04 00:26:07;;;;;;;6.80;3.70;;;9.80;92.90;;;;;;5054079;28;20474;-51
2023/05/04 00:28:33;;;;;;;7.43;4.30;;;9.30;92.70;;;;;;5053720;28;20435;-50
2023/05/04 00:31:00;;;;;;;8.17;3.90;;;9.20;92.90;;;;;;5054568;28;20426;-51
2023/05/04 00:33:27;;;;;;;9.27;3.77;;;9.20;93.00;;;;;;5054305;28;20627;-51
2023/05/04 00:35:54;;;;;;;8.50;4.53;;;9.80;93.50;;;;;;5053941;28;20425;-50
2023/05/04 00:38:22;;;;;;;13.03;4.40;;;9.30;93.40;;;;;;5053876;28;20687;-51
2023/05/04 00:40:49;;;;;;;7.53;3.93;;;8.70;93.00;;;;;;5054040;28;20433;-51
2023/05/04 00:43:16;;;;;;;9.20;4.23;;;9.60;93.80;;;;;;5052612;28;20444;-50
2023/05/04 00:45:42;;;;;;;10.37;4.87;;;8.70;93.30;;;;;;5052295;28;20858;-51
2023/05/04 00:48:09;;;;;;;12.93;4.97;;;9.50;93.60;;;;;;5053344;28;20860;-51
2023/05/04 00:50:36;;;;;;;11.50;4.47;;;9.50;93.90;;;;;;5053795;28;20409;-50
2023/05/04 00:53:08;;;;;;;8.83;4.27;;;8.70;93.50;;;;;;5053771;28;20929;-51
2023/05/04 00:55:38;;;;;;;9.30;5.20;;;9.60;94.20;;;;;;5052293;28;20487;-51
2023/05/04 00:58:06;;;;;;;10.17;4.80;;;9.20;94.20;;;;;;5053508;28;20405;-51
2023/05/04 01:00:32;;;;;;;8.37;4.30;;;8.90;94.20;;;;;;5052532;28;20969;-52
2023/05/04 01:02:59;;;;;;;8.80;4.10;;;8.70;94.20;;;;;;5053579;28;20432;-51
2023/05/04 01:05:31;;;;;;;6.90;4.00;;;9.10;94.50;;;;;;5052033;28;21008;-51
2023/05/04 01:08:04;;;;;;;10.80;4.83;;;9.60;94.40;;;;;;5052113;28;20959;-51
2023/05/04 01:10:39;;;;;;;12.57;5.20;;;9.10;94.70;;;;;;5051970;28;20442;-50
2023/05/04 01:13:10;;;;;;;11.70;5.30;;;9.20;94.70;;;;;;5057573;28;20812;-51
2023/05/04 01:15:38;;;;;;;8.63;3.40;;;9.00;94.60;;;;;;5052789;28;20441;-51
2023/05/04 01:18:04;;;;;;;6.17;4.00;;;9.40;95.00;;;;;;5051822;28;20442;-49
2023/05/04 01:20:33;;;;;;;9.97;4.77;;;9.10;95.00;;;;;;5053529;28;20484;-51
2023/05/04 01:23:01;;;;;;;10.60;4.80;;;9.00;95.10;;;;;;5053108;28;20420;-51
2023/05/04 01:25:32;;;;;;;10.00;4.57;;;9.00;95.40;;;;;;5052774;28;20453;-50
2023/05/04 01:28:06;;;;;;;10.33;4.47;;;8.90;95.10;;;;;;5051726;28;20454;-49
2023/05/04 01:30:39;;;;;;;7.37;3.87;;;9.20;95.60;;;;;;5053023;28;20931;-50
2023/05/04 01:33:06;;;;;;;7.77;4.23;;;9.00;95.40;;;;;;5052892;28;20409;-51
2023/05/04 01:35:35;;;;;;;5.30;3.10;;;9.00;95.60;;;;;;5052868;28;20554;-51
2023/05/04 01:38:03;;;;;;;9.50;3.57;;;8.90;95.60;;;;;;5052670;28;20472;-51
2023/05/04 01:40:30;;;;;;;4.67;3.43;;;8.90;95.70;;;;;;5052627;28;20413;-51
2023/05/04 01:42:56;;;;;;;7.63;3.77;;;9.40;96.00;;;;;;5052769;28;20401;-52
2023/05/04 01:45:24;;;;;;;12.83;3.80;;;8.80;95.60;;;;;;5052571;28;20486;-51
2023/05/04 01:47:51;;;;;;;8.47;4.10;;;8.80;95.80;;;;;;5051275;28;20461;-51
2023/05/04 01:50:18;;;;;;;10.23;4.30;;;8.90;95.90;;;;;;5051020;28;20425;-51
2023/05/04 01:52:45;;;;;;;5.30;3.30;;;8.80;96.00;;;;;;5052543;28;20513;-52
2023/05/04 01:55:13;;;;;;;11.30;4.70;;;8.50;95.90;;;;;;5052404;28;20413;-52
2023/05/04 01:57:40;;;;;;;6.67;3.70;;;8.60;95.80;;;;;;5057698;22;20520;-53
2023/05/04 02:00:08;;;;;;;12.23;3.90;;;8.30;95.80;;;;;;5030081;28;20426;-53
2023/05/04 02:02:44;;;;;;;6.13;3.40;;;8.90;96.30;;;;;;5030877;28;20537;-52
2023/05/04 02:05:15;;;;;;;8.00;3.67;;;8.70;96.30;;;;;;5030747;28;20475;-53
2023/05/04 02:07:42;;;;;;;8.80;3.87;;;8.60;96.20;;;;;;5030725;28;20438;-52
2023/05/04 02:10:09;;;;;;;7.60;3.80;;;8.80;96.20;;;;;;5031732;28;20439;-53
2023/05/04 02:12:37;;;;;;;11.27;4.07;;;8.70;96.50;;;;;;5030753;28;20447;-53
2023/05/04 02:15:05;;;;;;;13.27;4.50;;;8.70;96.50;;;;;;5031955;28;20498;-53
2023/05/04 02:17:31;;;;;;;8.97;3.70;;;8.70;96.50;;;;;;5031782;28;21000;-53
2023/05/04 02:19:58;;;;;;;7.03;3.97;;;8.70;96.50;;;;;;5031641;28;20436;-53
2023/05/04 02:22:24;;;;;;;9.20;3.87;;;8.30;96.60;;;;;;5031972;28;20844;-53
2023/05/04 02:24:52;;;;;;;8.03;3.60;;;8.30;96.50;;;;;;5030418;28;20478;-53
2023/05/04 02:27:19;;;;;;;13.40;4.17;;;8.40;96.60;;;;;;5031846;28;20418;-53
2023/05/04 02:29:47;;;;;;;12.50;3.97;;;8.60;96.90;;;;;;5030205;28;20449;-53
2023/05/04 02:32:13;;;;;;;8.60;3.70;;;8.50;96.90;;;;;;5031896;28;20430;-53
2023/05/04 02:34:40;;;;;;;7.33;3.57;;;8.60;96.90;;;;;;5031766;28;20402;-53
2023/05/04 02:37:07;;;;;;;6.80;3.83;;;8.60;97.00;;;;;;5030370;28;20471;-53
2023/05/04 02:39:35;;;;;;;10.10;4.00;;;8.50;96.80;;;;;;5031421;28;21009;-52
2023/05/04 02:42:01;;;;;;;6.67;3.03;;;8.70;97.00;;;;;;5030425;28;20422;-52
2023/05/04 02:44:28;;;;;;;9.53;3.90;;;8.90;97.10;;;;;;5031655;28;20432;-52
2023/05/04 02:46:56;;;;;;;13.10;3.83;;;8.00;96.80;;;;;;5031504;28;20799;-52
2023/05/04 02:49:23;;;;;;;10.07;3.90;;;8.60;97.20;;;;;;5030042;28;20470;-51
2023/05/04 02:51:50;;;;;;;9.43;4.03;;;8.80;97.30;;;;;;5030419;28;20428;-52
2023/05/04 02:54:17;;;;;;;7.30;3.93;;;8.60;97.40;;;;;;5030171;28;20912;-53
2023/05/04 02:56:44;;;;;;;8.23;4.80;;;8.50;97.20;;;;;;5031387;28;20478;-52
2023/05/04 02:59:10;;;;;;;11.03;4.13;;;8.30;97.20;;;;;;5031233;28;20468;-53
2023/05/04 03:01:37;;;;;;;7.50;4.00;;;8.80;97.60;;;;;;5031583;28;20437;-51
2023/05/04 03:04:06;;;;;;;8.13;4.67;;;8.30;97.40;;;;;;5031510;28;20456;-53
2023/05/04 03:06:32;;;;;;;9.33;3.50;;;8.20;97.40;;;;;;5030148;28;20537;-51
2023/05/04 03:08:59;;;;;;;5.80;3.90;;;8.40;97.50;;;;;;5031187;28;20410;-53
2023/05/04 03:11:26;;;;;;;6.53;3.50;;;8.20;97.50;;;;;;5030543;28;20468;-52
2023/05/04 03:13:52;;;;;;;8.23;3.73;;;8.20;97.60;;;;;;5033755;28;20446;-52
2023/05/04 03:16:20;;;;;;;8.50;3.57;;;8.20;97.60;;;;;;5033733;28;20497;-51
2023/05/04 03:18:47;;;;;;;8.40;3.67;;;8.00;97.50;;;;;;5034143;28;20862;-52
2023/05/04 03:21:15;;;;;;;7.87;4.20;;;8.20;97.70;;;;;;5034102;28;20428;-52
2023/05/04 03:23:43;;;;;;;8.50;3.57;;;7.90;97.50;;;;;;5033851;28;20425;-52
2023/05/04 03:26:09;;;;;;;8.00;3.53;;;8.50;97.80;;;;;;5033431;28;20998;-52
2023/05/04 03:28:36;;;;;;;11.10;3.83;;;8.40;97.90;;;;;;5033544;28;20512;-53
2023/05/04 03:31:03;;;;;;;6.40;4.03;;;8.10;97.70;;;;;;5035278;28;20858;-52
2023/05/04 03:33:30;;;;;;;10.97;4.30;;;8.40;97.70;;;;;;5033843;28;20424;-52
2023/05/04 03:35:57;;;;;;;7.17;3.73;;;8.40;97.60;;;;;;5035345;28;20822;-53
2023/05/04 03:38:25;;;;;;;9.00;3.93;;;8.30;97.80;;;;;;5034600;28;20406;-52
2023/05/04 03:40:52;;;;;;;6.20;4.07;;;8.20;97.90;;;;;;5033649;28;20542;-52
2023/05/04 03:43:19;;;;;;;10.50;3.97;;;8.00;97.70;;;;;;5033358;28;20414;-52
2023/05/04 03:45:45;;;;;;;7.17;3.20;;;8.60;98.10;;;;;;5033135;28;20457;-53
2023/05/04 03:48:12;;;;;;;8.60;4.60;;;7.90;97.80;;;;;;5034244;28;20406;-53
2023/05/04 03:50:39;;;;;;;13.00;3.90;;;8.30;98.00;;;;;;5033183;28;20452;-53
2023/05/04 03:53:05;;;;;;;10.63;3.80;;;8.10;98.00;;;;;;5034771;28;20446;-53
2023/05/04 03:55:34;;;;;;;20.03;4.53;;;8.20;98.00;;;;;;5033134;28;20426;-52
2023/05/04 03:58:01;;;;;;;14.73;7.00;;;8.20;98.00;;;;;;5033332;28;20443;-52
2023/05/04 04:00:28;;;;;;;9.47;4.43;;;8.40;98.20;;;;;;5033037;28;20432;-51
2023/05/04 04:03:04;;;;;;;8.17;3.67;;;8.10;98.20;;;;;;5033343;28;20556;-53
2023/05/04 04:05:31;;;;;;;7.90;3.40;;;8.10;98.00;;;;;;5032907;28;20473;-53
2023/05/04 04:07:57;;;;;;;6.90;3.87;;;8.30;98.20;;;;;;5032851;28;20457;-53
2023/05/04 04:10:24;;;;;;;10.20;4.77;;;8.40;98.50;;;;;;5032852;28;20437;-52
2023/05/04 04:12:52;;;;;;;12.37;4.53;;;8.20;98.40;;;;;;5034610;28;20426;-54
2023/05/04 04:15:19;;;;;;;9.50;4.47;;;8.40;98.50;;;;;;5034179;28;20417;-53
2023/05/04 04:17:45;;;;;;;14.80;5.43;;;8.50;98.30;;;;;;5034077;28;20801;-52
2023/05/04 04:20:12;;;;;;;11.40;4.43;;;8.30;98.40;;;;;;5033677;28;20551;-52
2023/05/04 04:22:39;;;;;;;9.17;3.60;;;8.20;98.30;;;;;;5033569;28;21031;-53
2023/05/04 04:25:06;;;;;;;12.50;3.97;;;8.40;98.40;;;;;;5032551;28;20441;-53
2023/05/04 04:27:33;;;;;;;6.80;4.23;;;8.50;98.40;;;;;;5033720;28;20796;-53
2023/05/04 04:30:01;;;;;;;7.07;3.60;;;8.50;98.40;;;;;;5033698;28;20445;-53
2023/05/04 04:32:28;;;;;;;14.03;4.40;;;8.90;98.40;;;;;;5033690;28;20438;-53
2023/05/04 04:34:54;;;;;;;8.87;3.97;;;8.60;98.30;;;;;;5033529;28;20445;-53
2023/05/04 04:37:21;;;;;;;11.47;4.57;;;8.30;98.00;;;;;;5033614;28;20445;-52
2023/05/04 04:39:48;;;;;;;9.87;3.97;;;8.90;98.00;;;;;;5033629;28;20772;-53
2023/05/04 04:42:14;;;;;;;6.20;4.23;;;8.80;97.60;;;;;;5033485;28;20485;-52
2023/05/04 04:44:41;;;;;;;11.47;4.40;;;9.10;97.60;;;;;;5033530;28;20443;-52
2023/05/04 04:47:09;;;;;;;8.93;4.57;;;9.70;97.60;;;;;;5033482;28;20487;-52
2023/05/04 04:49:36;;;;;;;8.90;5.10;;;9.40;96.90;;;;;;5033173;28;20406;-52
2023/05/04 04:52:02;;;;;;;9.37;4.00;;;9.70;96.90;;;;;;5033586;28;20443;-53
2023/05/04 04:54:30;;;;;;;10.87;5.13;;;9.60;96.50;;;;;;5033346;28;20440;-52
2023/05/04 04:56:58;;;;;;;8.77;4.60;;;9.60;96.30;;;;;;5032820;28;20442;-53
2023/05/04 04:59:24;;;;;;;8.40;4.33;;;10.00;95.60;;;;;;5031830;28;20452;-51
2023/05/04 05:01:51;;;;;;;16.70;5.47;;;10.20;95.40;;;;;;5033337;28;20416;-52
2023/05/04 05:04:20;;;;;;;11.30;4.70;;;9.90;95.60;;;;;;5033536;28;20439;-54
2023/05/04 05:06:47;;;;;;;12.63;5.23;;;10.20;94.80;;;;;;5033111;28;20516;-52
2023/05/04 05:09:14;;;;;;;9.53;3.80;;;10.10;94.40;;;;;;5033010;28;20420;-53
2023/05/04 05:11:40;;;;;;;7.70;4.20;;;10.60;94.30;;;;;;5033244;28;20421;-52
2023/05/04 05:14:07;;;;;;;8.53;4.60;;;10.50;94.10;;;;;;5033082;28;20410;-54
2023/05/04 05:16:33;;;;;;;9.23;3.73;;;10.30;93.90;;;;;;5032902;28;20760;-54
2023/05/04 05:19:00;;;;;;;16.67;4.43;;;10.80;93.70;;;;;;5032699;28;20409;-53
2023/05/04 05:21:28;;;;;;;5.97;3.57;;;11.00;93.60;;;;;;5031604;28;20426;-53
2023/05/04 05:23:55;;;;;;;11.80;4.67;;;11.30;93.00;;;;;;5032996;28;20427;-52
2023/05/04 05:26:21;;;;;;;12.17;5.87;;;11.20;92.70;;;;;;5032301;28;20465;-53
2023/05/04 05:28:48;;;;;;;11.60;5.53;;;11.40;92.50;;;;;;5032300;28;20501;-52
2023/05/04 05:31:14;;;;;;;16.80;5.97;;;11.70;92.50;;;;;;5032381;28;20929;-53
2023/05/04 05:33:41;;;;;;;10.23;4.70;;;11.40;92.00;;;;;;5031929;28;20403;-53
2023/05/04 05:36:08;;;;;;;7.50;4.40;;;11.90;91.80;;;;;;5031606;28;20429;-52
2023/05/04 05:38:36;;;;;;;15.33;5.67;;;11.50;91.40;;;;;;5031892;28;20418;-54
2023/05/04 05:41:03;;;;;;;8.90;6.37;;;11.90;91.50;;;;;;5032059;28;20537;-52
2023/05/04 05:43:31;;;;;;;9.57;3.90;;;11.60;91.20;;;;;;5031883;28;20433;-52
2023/05/04 05:45:58;;;;;;;8.30;4.10;;;12.30;91.20;;;;;;5032002;28;20482;-52
2023/05/04 05:48:25;;;;;;;11.00;5.20;;;12.30;91.10;;;;;;5032048;28;20779;-54
2023/05/04 05:50:51;;;;;;;9.07;4.80;;;12.30;90.90;;;;;;5032046;28;20406;-54
2023/05/04 05:53:18;;;;;;;9.27;4.00;;;12.10;90.60;;;;;;5031891;28;20427;-54
2023/05/04 05:55:47;;;;;;;8.80;5.17;;;12.30;90.40;;;;;;5031997;28;20823;-52
2023/05/04 05:58:14;;;;;;;10.73;4.50;;;12.60;89.90;;;;;;5031725;28;20404;-52
2023/05/04 06:00:41;;;;;;;13.07;5.33;;;12.50;89.50;;;;;;5030325;28;20793;-53
2023/05/04 06:03:07;;;;;;;12.30;5.93;;;12.60;89.70;;;;;;5031797;28;20455;-53
2023/05/04 06:05:34;;;;;;;7.17;4.33;;;12.10;88.30;;;;;;5031005;28;20445;-53
2023/05/04 06:08:01;;;;;;;8.43;4.87;;;12.40;87.90;;;;;;5031344;28;20406;-53
2023/05/04 06:10:27;;;;;;;10.73;4.73;;;12.60;87.60;;;;;;5030448;28;20498;-55
2023/05/04 06:12:55;;;;;;;9.80;4.60;;;12.70;87.20;;;;;;5031210;28;21014;-53
2023/05/04 06:15:22;;;;;;;11.00;4.90;;;12.70;86.80;;;;;;5031908;28;20435;-53
2023/05/04 06:17:49;;;;;;;10.30;4.33;;;13.20;86.80;;;;;;5031715;28;20467;-53
2023/05/04 06:20:16;;;;;;;9.00;4.83;;;12.80;86.00;;;;;;5031417;28;20532;-53
2023/05/04 06:22:43;;;;;;;10.17;4.60;;;13.00;85.70;;;;;;5031580;28;20537;-53
2023/05/04 06:25:10;;;;;;;11.63;5.30;;;12.90;85.10;;;;;;5031497;28;20419;-53
2023/05/04 06:27:37;;;;;;;10.67;5.03;;;12.90;84.70;;;;;;5031283;28;20489;-54
2023/05/04 06:30:06;;;;;;;9.30;5.30;;;13.60;85.30;;;;;;5031057;28;20618;-53
2023/05/04 06:32:33;;;;;;;7.23;5.20;;;13.20;85.60;;;;;;5031411;28;20426;-53
2023/05/04 06:35:01;;;;;;;7.17;4.60;;;13.40;84.70;;;;;;5031419;28;20428;-53
2023/05/04 06:37:27;;;;;;;6.87;4.53;;;13.30;84.00;;;;;;5030662;28;20743;-53
2023/05/04 06:39:54;;;;;;;8.93;5.77;;;13.30;83.70;;;;;;5030634;28;20798;-53
2023/05/04 06:42:21;;;;;;;9.37;4.70;;;13.60;83.70;;;;;;5031563;28;20417;-52
2023/05/04 06:44:49;;;;;;;8.77;5.07;;;13.40;83.10;;;;;;5029883;28;20468;-53
2023/05/04 06:47:17;;;;;;;10.23;5.10;;;13.40;82.80;;;;;;5037297;28;20489;-51
2023/05/04 06:49:43;;;;;;;10.00;4.77;;;13.60;82.90;;;;;;5037824;28;20412;-52
2023/05/04 06:52:10;;;;;;;8.30;4.50;;;13.80;83.00;;;;;;5038068;28;20436;-53
2023/05/04 06:54:38;;;;;;;9.37;4.33;;;13.30;82.20;;;;;;5037333;28;20937;-54
2023/05/04 06:57:05;;;;;;;14.10;4.57;;;13.40;82.40;;;;;;5037730;28;20513;-52
2023/05/04 06:59:32;;;;;;;8.30;4.60;;;13.90;83.20;;;;;;5036141;28;20512;-53
2023/05/04 07:01:58;;;;;;;11.60;4.80;;;13.40;82.40;;;;;;5037925;28;20511;-53
2023/05/04 07:04:26;;;;;;;6.93;4.50;;;13.50;82.20;;;;;;5037888;28;20437;-54
2023/05/04 07:06:53;;;;;;;8.67;4.13;;;13.40;81.80;;;;;;5037875;28;20886;-54
2023/05/04 07:09:21;;;;;;;9.57;4.80;;;14.00;82.20;;;;;;5037566;28;20461;-53
2023/05/04 07:11:48;;;;;;;11.10;4.93;;;13.50;81.40;;;;;;5037841;28;20438;-52
2023/05/04 07:14:14;;;;;;;10.90;4.73;;;13.60;81.00;;;;;;5038158;28;20442;-54
2023/05/04 07:16:41;;;;;;;9.47;4.30;;;13.70;80.70;;;;;;5037779;28;20465;-54
2023/05/04 07:19:08;;;;;;;11.20;5.03;;;13.70;80.90;;;;;;5036998;28;20408;-55
2023/05/04 07:21:36;;;;;;;6.97;4.33;;;14.00;81.00;;;;;;5037480;28;21023;-54
2023/05/04 07:24:03;;;;;;;14.17;5.27;;;13.80;80.80;;;;;;5037358;28;20521;-53
2023/05/04 07:26:29;;;;;;;10.93;4.90;;;13.40;80.30;;;;;;5036933;28;20541;-53
2023/05/04 07:28:56;;;;;;;11.83;5.00;;;13.80;80.30;;;;;;5037096;28;20435;-54
2023/05/04 07:31:23;;;;;;;12.93;4.33;;;14.30;80.60;;;;;;5037568;28;20771;-52
2023/05/04 07:33:49;;;;;;;8.27;4.37;;;13.80;79.30;;;;;;5037263;28;20769;-55
2023/05/04 07:36:16;;;;;;;11.43;5.70;;;13.70;78.60;;;;;;5036997;28;20441;-52
2023/05/04 07:38:44;;;;;;;10.67;5.23;;;14.30;79.10;;;;;;5037059;28;20474;-54
2023/05/04 07:41:11;;;;;;;13.90;5.37;;;14.00;79.00;;;;;;5037486;28;20445;-54
2023/05/04 07:43:37;;;;;;;10.13;4.70;;;13.90;78.70;;;;;;5037675;28;20456;-53
2023/05/04 07:46:04;;;;;;;8.97;4.10;;;13.60;78.30;;;;;;5037481;28;20446;-53
2023/05/04 07:48:32;;;;;;;14.37;5.63;;;14.20;78.90;;;;;;5037703;28;20470;-53
2023/05/04 07:50:59;;;;;;;12.73;5.07;;;14.40;79.20;;;;;;5037428;28;20440;-52
2023/05/04 07:53:26;;;;;;;11.00;4.27;;;14.10;78.00;;;;;;5037177;28;20481;-52
2023/05/04 07:55:56;;;;;;;7.57;4.37;;;14.70;78.40;;;;;;5037279;28;20432;-53
2023/05/04 07:58:22;;;;;;;10.10;4.07;;;14.20;77.10;;;;;;5033878;28;20490;-54
2023/05/04 08:00:49;;;;;;;8.77;4.00;;;13.90;76.00;;;;;;5032963;28;20605;-53
2023/05/04 08:03:16;;;;;;;9.07;3.20;;;14.30;76.20;;;;;;5034097;28;20433;-55
2023/05/04 08:05:42;;;;;;;13.97;3.70;;;14.10;75.30;;;;;;5034269;28;20410;-53
2023/05/04 08:08:09;;;;;;;6.73;3.23;;;14.40;74.70;;;;;;5033813;28;20482;-53
2023/05/04 08:10:36;;;;;;;5.13;3.60;;;14.40;74.50;;;;;;5033961;28;20431;-53
2023/05/04 08:13:04;;;;;;;6.93;4.07;;;14.10;73.00;;;;;;5034103;28;20450;-53
2023/05/04 08:15:31;;;;;;;9.07;4.50;;;14.70;73.80;;;;;;5034263;28;20909;-53
2023/05/04 08:17:58;;;;;;;9.53;4.00;;;14.60;73.40;;;;;;5030877;28;20463;-52
2023/05/04 08:20:24;;;;;;;10.10;4.10;;;14.60;73.40;;;;;;5033417;28;20527;-55
2023/05/04 08:22:51;;;;;;;19.07;4.40;;;14.80;73.60;;;;;;5033244;28;20443;-53
2023/05/04 08:25:17;;;;;;;7.07;3.37;;;14.40;73.30;;;;;;5033762;28;20410;-53
2023/05/04 08:27:45;;;;;;;11.07;4.17;;;14.40;72.40;;;;;;5033285;28;20826;-53
2023/05/04 08:30:14;;;;;;;6.30;3.00;;;14.90;71.80;;;;;;5033105;28;20573;-52
2023/05/04 08:32:40;;;;;;;14.80;3.90;;;14.80;71.40;;;;;;5033123;28;20436;-54
2023/05/04 08:35:07;;;;;;;6.70;3.47;;;15.00;71.20;;;;;;5033712;28;20432;-54
2023/05/04 08:37:34;;;;;;;10.53;4.20;;;15.20;71.60;;;;;;5015205;28;20491;-52
2023/05/04 08:40:00;;;;;;;7.83;3.90;;;15.00;71.60;;;;;;5013396;28;20864;-52
2023/05/04 08:42:28;;;;;;;10.43;3.10;;;15.30;71.20;;;;;;5013741;28;20448;-54
2023/05/04 08:44:57;;;;;;;8.23;3.40;;;15.20;70.50;;;;;;5013996;28;20474;-54
2023/05/04 08:47:25;;;;;;;7.23;4.23;;;15.30;69.80;;;;;;5013286;28;20571;-54
2023/05/04 08:49:52;;;;;;;9.33;3.60;;;15.00;69.60;;;;;;5013111;28;20411;-53
2023/05/04 08:52:21;;;;;;;7.57;3.80;;;15.40;68.70;;;;;;5021078;28;20463;-52
2023/05/04 08:54:49;;;;;;;6.13;3.07;;;15.40;68.20;;;;;;5032520;28;20530;-53
2023/05/04 08:57:16;;;;;;;5.63;3.53;;;15.30;67.10;;;;;;5032738;28;20453;-52
2023/05/04 08:59:45;;;;;;;7.60;2.97;;;15.40;65.70;;;;;;5032367;28;20945;-53
2023/05/04 09:02:13;;;;;;;10.77;5.93;;;15.20;65.70;;;;;;5032588;28;20414;-53
2023/05/04 09:04:41;;;;;;;6.90;3.60;;;15.10;66.00;;;;;;5033029;28;20807;-54
2023/05/04 09:07:07;;;;;;;8.60;3.40;;;15.30;64.20;;;;;;5032381;28;20525;-54
2023/05/04 09:09:34;;;;;;;6.27;3.27;;;15.70;64.40;;;;;;5030378;28;20462;-53
2023/05/04 09:12:01;;;;;;;4.60;2.90;;;15.50;63.90;;;;;;5032786;28;20436;-52
2023/05/04 09:14:34;;;;;;;5.87;3.27;;;15.20;63.20;;;;;;5032839;28;20954;-52
2023/05/04 09:17:01;;;;;;;13.63;3.63;;;15.10;63.30;;;;;;5032437;28;20459;-54
2023/05/04 09:19:32;;;;;;;8.57;3.50;;;15.40;63.80;;;;;;5032064;28;20485;-53
2023/05/04 09:22:00;;;;;;;5.67;3.03;;;15.50;64.20;;;;;;5032463;28;20969;-53
2023/05/04 09:24:27;;;;;;;10.90;3.60;;;15.70;64.60;;;;;;5024909;28;20908;-53
2023/05/04 09:26:53;;;;;;;6.47;3.67;;;15.50;64.60;;;;;;5012566;28;20531;-52
2023/05/04 09:29:21;;;;;;;6.20;3.67;;;15.60;63.70;;;;;;5012281;28;20519;-53
2023/05/04 09:31:49;;;;;;;6.30;3.80;;;15.60;63.20;;;;;;5012582;28;20737;-54
2023/05/04 09:34:19;;;;;;;4.63;2.63;;;15.60;63.20;;;;;;5012324;28;20431;-52
2023/05/04 09:36:46;;;;;;;6.90;3.70;;;15.80;62.90;;;;;;5011957;28;20956;-54
2023/05/04 09:39:15;;;;;;;10.80;3.60;;;15.60;62.30;;;;;;5014274;28;20585;-53
2023/05/04 09:41:42;;;;;;;7.20;3.90;;;16.20;62.90;;;;;;5031906;28;20436;-52
2023/05/04 09:44:17;;;;;;;5.50;3.60;;;15.70;62.50;;;;;;5031795;28;20439;-53
2023/05/04 09:46:52;;;;;;;7.07;3.63;;;16.20;63.70;;;;;;5031783;28;20430;-52
2023/05/04 09:49:28;;;;;;;10.97;4.10;;;16.20;63.80;;;;;;5030161;28;21019;-52
2023/05/04 09:51:56;;;;;;;9.10;4.00;;;15.90;63.30;;;;;;5031911;28;20881;-52
2023/05/04 09:54:26;;;;;;;8.20;4.63;;;16.10;63.20;;;;;;5031440;28;20455;-54
2023/05/04 09:56:57;;;;;;;10.07;4.97;;;16.40;62.90;;;;;;5028592;28;20485;-55
2023/05/04 09:59:29;;;;;;;9.43;4.67;;;16.30;62.60;;;;;;5031145;28;20469;-51
2023/05/04 10:01:57;;;;;;;9.80;3.97;;;16.50;61.80;;;;;;5031485;28;20441;-54
2023/05/04 10:04:24;;;;;;;13.30;4.33;;;16.30;61.20;;;;;;5026918;28;20822;-54
2023/05/04 10:06:52;;;;;;;7.13;4.17;;;16.50;61.20;;;;;;5024848;28;20482;-53
2023/05/04 10:09:20;;;;;;;10.13;4.53;;;16.70;61.60;;;;;;5030540;28;20450;-51
2023/05/04 10:11:49;;;;;;;9.33;3.73;;;16.60;60.90;;;;;;5028855;28;20457;-53
2023/05/04 10:14:15;;;;;;;5.23;4.00;;;16.60;60.60;;;;;;5025583;28;20460;-53
2023/05/04 10:16:51;;;;;;;9.30;3.43;;;16.60;60.50;;;;;;5028164;28;20582;-54
2023/05/04 10:19:33;;;;;;;9.07;4.30;;;16.30;59.90;;;;;;5043349;28;20948;-53
2023/05/04 10:22:15;;;;;;;8.30;4.00;;;16.70;59.50;;;;;;5028941;28;20435;-53
2023/05/04 10:25:21;;;;;;;11.03;3.70;;;16.80;59.50;;;;;;5029768;28;20471;-53
2023/05/04 10:28:00;;;;;;;9.97;4.10;;;16.50;58.80;;;;;;5023376;28;20496;-53
2023/05/04 10:30:27;;;;;;;12.07;3.92;;;16.80;59.00;;;;;;5039805;28;20798;-52
2023/05/04 10:32:57;;;;;;;12.30;4.13;;;16.90;58.60;;;;;;5040573;28;20212;-53
2023/05/04 10:35:25;;;;;;;5.97;3.30;;;17.00;58.70;;;;;;5047981;28;20449;-52
2023/05/04 10:37:53;;;;;;;5.93;3.70;;;17.10;58.70;;;;;;5046435;28;20470;-53
2023/05/04 10:40:31;;;;;;;6.03;3.80;;;17.30;58.50;;;;;;5040909;28;20965;-51
2023/05/04 10:43:00;;;;;;;9.03;3.40;;;17.20;58.00;;;;;;5029239;28;20771;-53
2023/05/04 10:45:35;;;;;;;8.43;3.37;;;17.10;58.00;;;;;;5046879;28;20414;-54
2023/05/04 10:48:01;;;;;;;6.53;3.73;;;17.40;58.30;;;;;;5043642;28;20607;-52
2023/05/04 10:50:28;;;;;;;6.00;3.90;;;17.30;57.40;;;;;;5018849;28;20922;-53
2023/05/04 10:52:55;;;;;;;5.13;3.30;;;17.10;57.00;;;;;;5020057;28;20957;-54
2023/05/04 10:55:22;;;;;;;8.67;4.07;;;17.30;57.30;;;;;;5027236;28;20453;-53
2023/05/04 10:57:50;;;;;;;9.70;3.33;;;17.30;57.30;;;;;;5029816;28;20468;-54
2023/05/04 11:00:19;;;;;;;8.73;3.20;;;17.20;57.50;;;;;;5016622;28;20532;-53
2023/05/04 11:02:46;;;;;;;5.93;3.37;;;17.50;57.40;;;;;;5041007;28;20451;-52
2023/05/04 11:05:17;;;;;;;7.50;4.00;;;17.40;57.00;;;;;;5038409;28;20522;-54
2023/05/04 11:07:44;;;;;;;8.50;3.43;;;18.00;56.80;;;;;;5048282;28;20237;-54
2023/05/04 11:10:21;;;;;;;9.50;4.07;;;17.80;56.50;;;;;;5049290;28;20437;-53
2023/05/04 11:12:47;;;;;;;5.73;4.10;;;17.40;56.00;;;;;;5039153;28;20469;-53
2023/05/04 11:15:14;;;;;;;8.60;4.17;;;17.90;56.90;;;;;;5030151;28;20450;-52
2023/05/04 11:17:49;;;;;;;9.60;4.90;;;17.70;56.40;;;;;;5029905;28;20570;-53
2023/05/04 11:20:20;;;;;;;10.40;4.03;;;18.20;56.10;;;;;;5035802;28;21038;-55
2023/05/04 11:22:47;;;;;;;8.97;4.50;;;18.10;55.80;;;;;;5033560;28;20477;-54
2023/05/04 11:25:15;;;;;;;10.83;3.90;;;17.60;55.10;;;;;;5030503;28;20446;-54
2023/05/04 11:27:43;;;;;;;7.40;3.80;;;17.70;55.30;;;;;;5035769;28;20493;-54
2023/05/04 11:30:10;;;;;;;5.73;3.50;;;18.10;55.30;;;;;;5029288;28;20417;-54
2023/05/04 11:32:39;;;;;;;8.63;3.70;;;18.10;55.40;;;;;;5029962;28;20433;-53
2023/05/04 11:35:09;;;;;;;8.27;3.90;;;18.30;54.60;;;;;;5033691;28;20295;-52
2023/05/04 11:37:40;;;;;;;9.60;4.10;;;18.30;54.60;;;;;;5047623;28;20468;-52
2023/05/04 11:40:12;;;;;;;10.13;4.00;;;18.70;54.60;;;;;;5033183;28;20434;-51
2023/05/04 11:42:40;;;;;;;7.77;3.20;;;18.70;54.10;;;;;;5033473;28;20462;-52
2023/05/04 11:45:11;;;;;;;7.03;3.77;;;18.50;53.80;;;;;;5042997;28;20458;-51
2023/05/04 11:47:38;;;;;;;8.90;4.03;;;18.40;53.30;;;;;;5034764;28;20482;-53
2023/05/04 11:50:10;;;;;;;6.80;4.00;;;18.80;53.70;;;;;;5034109;28;20835;-56
2023/05/04 11:52:39;;;;;;;9.03;3.53;;;18.80;53.50;;;;;;5033319;28;20446;-56
2023/05/04 11:55:07;;;;;;;6.80;3.40;;;18.70;53.20;;;;;;5029277;28;20466;-54
2023/05/04 11:57:35;;;;;;;8.00;3.57;;;18.80;53.10;;;;;;5034658;28;20814;-56
2023/05/04 12:00:03;;;;;;;4.90;3.20;;;18.30;52.60;;;;;;5037459;28;20774;-54
2023/05/04 12:02:31;;;;;;;8.90;4.30;;;18.80;53.20;;;;;;5032852;28;20827;-53
2023/05/04 12:04:58;;;;;;;4.70;3.53;;;18.90;53.00;;;;;;5032575;28;20805;-53
2023/05/04 12:07:26;;;;;;;5.53;3.67;;;19.10;53.10;;;;;;5033602;28;20524;-54
2023/05/04 12:09:52;;;;;;;10.60;3.80;;;18.80;52.60;;;;;;5036741;28;20434;-52
2023/05/04 12:12:20;;;;;;;8.03;4.30;;;19.10;52.70;;;;;;5034809;28;20916;-52
2023/05/04 12:14:48;;;;;;;7.33;3.83;;;19.40;52.80;;;;;;5029569;28;20448;-53
2023/05/04 12:17:14;;;;;;;10.67;4.13;;;19.40;52.10;;;;;;5032511;28;20485;-52
2023/05/04 12:19:52;;;;;;;6.00;4.13;;;19.20;51.50;;;;;;5030848;28;20953;-51
2023/05/04 12:22:28;;;;;;;8.47;4.80;;;19.00;51.20;;;;;;5032682;28;20453;-52
2023/05/04 12:24:56;;;;;;;6.67;3.53;;;19.50;51.40;;;;;;5044916;28;20519;-52
2023/05/04 12:27:23;;;;;;;6.70;4.50;;;19.60;51.60;;;;;;5052715;28;20484;-53
2023/05/04 12:29:50;;;;;;;13.33;4.30;;;19.40;51.20;;;;;;5046700;28;20994;-54
2023/05/04 12:32:16;;;;;;;6.73;4.07;;;19.40;51.30;;;;;;5032506;28;20447;-53
2023/05/04 12:34:43;;;;;;;10.10;3.90;;;19.30;51.30;;;;;;5032402;28;20439;-52
2023/05/04 12:37:10;;;;;;;6.20;3.57;;;19.60;51.60;;;;;;5032109;28;20819;-53
2023/05/04 12:39:38;;;;;;;9.80;4.43;;;19.40;51.50;;;;;;5031485;28;20995;-55
2023/05/04 12:42:05;;;;;;;6.60;3.67;;;19.60;51.40;;;;;;5032430;28;20444;-53
2023/05/04 12:44:32;;;;;;;5.30;3.53;;;19.50;51.00;;;;;;5031947;28;20443;-54
2023/05/04 12:46:59;;;;;;;12.60;5.20;;;19.60;50.60;;;;;;5032055;28;20534;-53
2023/05/04 12:49:25;;;;;;;5.23;3.87;;;19.60;50.60;;;;;;5031387;28;20494;-53
2023/05/04 12:51:52;;;;;;;6.90;4.00;;;19.50;49.90;;;;;;5032314;28;20436;-53